ADDS METAR Data INFO
IDs: Format: Raw Decoded Include TAF

Data at: 1841 UTC 16 Dec 2017

KHII 161815Z AUTO 00000KT 10SM CLR 15/M14 A2976 RMK AO2
KHII 161755Z AUTO 00000KT 10SM CLR 15/M13 A2977 RMK AO2
KHII 161735Z AUTO 34003KT 10SM CLR 13/M10 A2978 RMK AO2
KHII 161715Z AUTO 32011KT 10SM CLR 09/M05 A2978 RMK AO2
KHII 161655Z AUTO 26005KT 10SM CLR 11/M10 A2976 RMK AO2
KHII 161635Z AUTO 15005KT 10SM CLR 11/M13 A2975 RMK AO2
KHII 161615Z AUTO 00000KT 10SM CLR 11/M12 A2977 RMK AO2
KHII 161555Z AUTO 00000KT 10SM CLR 10/M12 A2977 RMK AO2
KHII 161535Z AUTO 00000KT 10SM CLR 11/M12 A2977 RMK AO2
KHII 161515Z AUTO 04003KT 10SM CLR 10/M12 A2977 RMK AO2
KHII 161455Z AUTO 05006KT 10SM CLR 10/M12 A2977 RMK AO2
KHII 161435Z AUTO 35003KT 10SM SCT090 10/M12 A2977 RMK AO2
KHII 161415Z AUTO 00000KT 10SM BKN065 OVC090 10/M12 A2976 RMK AO2
KHII 161355Z AUTO 33004KT 10SM BKN065 BKN110 10/M12 A2976 RMK AO2
KHII 161335Z AUTO 32003KT 10SM FEW065 SCT090 BKN110 10/M12 A2976 RMK AO2
KHII 161315Z AUTO 00000KT 10SM SCT090 OVC110 10/M12 A2976 RMK AO2
KHII 161255Z AUTO 36004KT 10SM OVC110 10/M10 A2978 RMK AO2
KHII 161235Z AUTO 33007KT 10SM BKN110 09/M11 A2978 RMK AO2
KHII 161215Z AUTO 31004KT 10SM SCT100 09/M11 A2978 RMK AO2
KHII 161155Z AUTO 00000KT 10SM OVC100 09/M12 A2979 RMK AO2
KHII 161135Z AUTO 32003KT 10SM OVC100 09/M12 A2981 RMK AO2
KHII 161115Z AUTO 00000KT 10SM OVC100 09/M12 A2982 RMK AO2
KHII 161055Z AUTO 00000KT 10SM BKN100 09/M12 A2984 RMK AO2
KHII 161035Z AUTO 00000KT 10SM FEW060 09/M12 A2985 RMK AO2
KHII 161015Z AUTO 00000KT 10SM FEW060 10/M12 A2987 RMK AO2
KHII 160955Z AUTO 00000KT 10SM SCT060 09/M12 A2988 RMK AO2
KHII 160935Z AUTO 33003KT 10SM BKN060 09/M12 A2989 RMK AO2
KHII 160915Z AUTO 00000KT 10SM BKN060 10/M12 A2989 RMK AO2
KHII 160855Z AUTO 00000KT 10SM SCT060 BKN100 09/M12 A2990 RMK AO2
KHII 160835Z AUTO 00000KT 10SM FEW060 BKN075 OVC100 10/M13 A2991 RMK AO2
KHII 160815Z AUTO 00000KT 10SM VCTS BKN075 OVC085 10/M13 A2991 RMK AO2 LTG DSNT NE
KHII 160755Z AUTO 00000KT 10SM OVC075 10/M13 A2992 RMK AO2
KHII 160735Z AUTO 00000KT 10SM OVC075 10/M13 A2993 RMK AO2
KHII 160715Z AUTO 12004KT 10SM BKN075 09/M13 A2994 RMK AO2
KHII 160655Z AUTO 00000KT 10SM BKN075 10/M13 A2995 RMK AO2
KHII 160635Z AUTO 00000KT 10SM BKN075 11/M13 A2996 RMK AO2
KHII 160615Z AUTO 00000KT 10SM BKN075 11/M13 A2997 RMK AO2
KHII 160555Z AUTO 00000KT 10SM FEW075 11/M13 A2997 RMK AO2
KHII 160535Z AUTO 00000KT 10SM CLR 12/M13 A2998 RMK AO2
KHII 160515Z AUTO 06003KT 10SM CLR 12/M13 A2998 RMK AO2
KHII 160455Z AUTO 00000KT 10SM VCTS CLR 13/M13 A2998 RMK AO2 LTG DSNT NE
KHII 160435Z AUTO 08003KT 10SM CLR 14/M12 A2998 RMK AO2
KHII 160415Z AUTO 07004KT 10SM VCTS CLR 13/M12 A2999 RMK AO2 LTG DSNT NE
KHII 160355Z AUTO 08003KT 10SM CLR 13/M12 A3000 RMK AO2
KHII 160335Z AUTO 00000KT 10SM CLR 13/M12 A3000 RMK AO2
KHII 160315Z AUTO 05004KT 10SM CLR 14/M12 A3000 RMK AO2
KHII 160255Z AUTO 05005KT 10SM CLR 14/M12 A3001 RMK AO2
KHII 160235Z AUTO 05004KT 10SM CLR 15/M12 A3001 RMK AO2
KHII 160215Z AUTO 06005KT 10SM CLR 15/M11 A3001 RMK AO2
KHII 160155Z AUTO 06004KT 10SM VCTS CLR 15/M11 A3001 RMK AO2 LTG DSNT NE
KHII 160135Z AUTO 00000KT 10SM CLR 15/M11 A3002 RMK AO2
KHII 160115Z AUTO 07003KT 10SM CLR 16/M10 A3002 RMK AO2
KHII 160055Z AUTO 09005KT 10SM CLR 17/M10 A3003 RMK AO2
KHII 160035Z AUTO 13003KT 10SM CLR 18/M09 A3004 RMK AO2
KHII 160015Z AUTO 18003KT 10SM CLR 19/M09 A3004 RMK AO2
KHII 152355Z AUTO 22004KT 10SM CLR 20/M09 A3005 RMK AO2
KHII 152335Z AUTO 25004KT 10SM CLR 20/M10 A3006 RMK AO2
KHII 152315Z AUTO 00000KT 10SM CLR 21/M10 A3006 RMK AO2
KHII 152255Z AUTO 00000KT 10SM VCTS CLR 21/M10 A3007 RMK AO2 LTG DSNT NE
KHII 152235Z AUTO 00000KT 10SM CLR 21/M11 A3008 RMK AO2
KHII 152215Z AUTO 00000KT 10SM CLR 21/M12 A3009 RMK AO2
KHII 152155Z AUTO 22004KT 10SM CLR 21/M10 A3010 RMK AO2
KHII 152135Z AUTO 00000KT 10SM CLR 20/M10 A3011 RMK AO2
KHII 152115Z AUTO 00000KT 10SM CLR 20/M10 A3011 RMK AO2
KHII 152055Z AUTO 28003KT 10SM VCTS CLR 20/M11 A3013 RMK AO2 LTG DSNT NE
KHII 152035Z AUTO 00000KT 10SM VCTS CLR 19/M09 A3014 RMK AO2 LTG DSNT NE
KHII 152015Z AUTO 27004KT 10SM CLR 19/M09 A3015 RMK AO2
KHII 151955Z AUTO 00000KT 10SM CLR 19/M09 A3016 RMK AO2
KHII 151935Z AUTO 32004KT 10SM CLR 18/M08 A3019 RMK AO2
KHII 151915Z AUTO 30003KT 10SM CLR 17/M08 A3020 RMK AO2
KHII 151855Z AUTO 00000KT 10SM CLR 17/M07 A3022 RMK AO2
KHII 151835Z AUTO 00000KT 10SM VCTS CLR 15/M07 A3024 RMK AO2 LTG DSNT NE
KHII 151815Z AUTO 00000KT 10SM CLR 14/M06 A3025 RMK AO2
KHII 151755Z AUTO 22004KT 10SM CLR 14/M07 A3025 RMK AO2
KHII 151735Z AUTO 20005KT 10SM CLR 15/M08 A3024 RMK AO2
KHII 151715Z AUTO 00000KT 10SM CLR 15/M08 A3024 RMK AO2
KHII 151655Z AUTO 16003KT 10SM CLR 13/M08 A3024 RMK AO2
KHII 151635Z AUTO 17003KT 10SM CLR 13/M08 A3024 RMK AO2
KHII 151615Z AUTO 01003KT 10SM CLR 14/M08 A3023 RMK AO2
KHII 151555Z AUTO 36003KT 10SM CLR 14/M08 A3024 RMK AO2
KHII 151535Z AUTO 36005KT 10SM CLR 13/M08 A3023 RMK AO2
KHII 151515Z AUTO 02006KT 10SM CLR 13/M08 A3022 RMK AO2
KHII 151455Z AUTO 01007KT 10SM CLR 12/M08 A3022 RMK AO2
KHII 151435Z AUTO 36009KT 10SM CLR 13/M08 A3021 RMK AO2
KHII 151415Z AUTO 01008KT 10SM CLR 13/M08 A3021 RMK AO2
KHII 151355Z AUTO 35009KT 10SM VCTS CLR 13/M08 A3021 RMK AO2 LTG DSNT NE
KHII 151335Z AUTO 33010KT 10SM CLR 12/M08 A3021 RMK AO2
KHII 151315Z AUTO 36007KT 10SM CLR 13/M08 A3021 RMK AO2
KHII 151255Z AUTO 36006KT 10SM CLR 13/M08 A3021 RMK AO2
KHII 151235Z AUTO 36007KT 10SM CLR 14/M08 A3020 RMK AO2
KHII 151215Z AUTO 01006KT 10SM CLR 13/M08 A3020 RMK AO2
KHII 151155Z AUTO 05005KT 10SM CLR 12/M08 A3020 RMK AO2
KHII 151135Z AUTO 08004KT 10SM CLR 12/M08 A3020 RMK AO2
KHII 151115Z AUTO 06003KT 10SM CLR 13/M08 A3020 RMK AO2
KHII 151055Z AUTO 34005KT 10SM CLR 13/M08 A3020 RMK AO2
KHII 151035Z AUTO 32008KT 10SM CLR 13/M08 A3020 RMK AO2
KHII 151015Z AUTO 36003KT 10SM CLR 14/M08 A3020 RMK AO2
KHII 150955Z AUTO 25003KT 10SM CLR 13/M08 A3020 RMK AO2
KHII 150935Z AUTO 00000KT 10SM CLR 14/M08 A3019 RMK AO2
KHII 150915Z AUTO 33010KT 10SM VCTS CLR 14/M09 A3019 RMK AO2 LTG DSNT NE
KHII 150855Z AUTO 36004KT 10SM CLR 14/M08 A3019 RMK AO2
KHII 150835Z AUTO 03006KT 10SM CLR 16/M08 A3018 RMK AO2
KHII 150815Z AUTO 36011G18KT 10SM CLR 17/M08 A3017 RMK AO2
KHII 150755Z AUTO 36007KT 10SM CLR 14/M08 A3017 RMK AO2
KHII 150735Z AUTO 33004KT 10SM FEW050 15/M08 A3018 RMK AO2
KHII 150715Z AUTO 30003KT 10SM FEW050 15/M08 A3018 RMK AO2
KHII 150655Z AUTO 00000KT 10SM FEW050 16/M08 A3018 RMK AO2